createdAt,value
2023-02-27T00:01:41.711Z,4.57
2023-02-27T00:04:27.163Z,3.78
2023-02-27T00:07:12.797Z,4.07
2023-02-27T00:09:57.812Z,7.35
2023-02-27T00:12:44.436Z,3.90
2023-02-27T00:15:32.445Z,3.75
2023-02-27T00:18:17.488Z,4.90
2023-02-27T00:21:03.120Z,6.65
2023-02-27T00:23:48.415Z,3.33
2023-02-27T00:26:33.706Z,4.78
2023-02-27T00:29:19.794Z,6.03
2023-02-27T00:32:04.971Z,4.38
2023-02-27T00:34:50.425Z,5.13
2023-02-27T00:37:36.468Z,2.75
2023-02-27T00:40:21.974Z,3.35
2023-02-27T00:43:07.034Z,2.80
2023-02-27T00:45:52.530Z,5.50
2023-02-27T00:48:38.044Z,3.58
2023-02-27T00:51:23.553Z,3.40
2023-02-27T00:54:09.635Z,3.75
2023-02-27T00:56:54.616Z,3.00
2023-02-27T00:59:40.060Z,5.25
2023-02-27T01:02:25.445Z,4.72
2023-02-27T01:05:11.152Z,4.97
2023-02-27T01:07:56.530Z,4.07
2023-02-27T01:10:41.794Z,2.67
2023-02-27T01:13:27.304Z,3.75
2023-02-27T01:16:13.281Z,9.15
2023-02-27T01:18:58.447Z,3.55
2023-02-27T01:21:44.666Z,5.07
2023-02-27T01:24:29.745Z,4.70
2023-02-27T01:27:15.257Z,3.95
2023-02-27T01:30:00.632Z,4.43
2023-02-27T01:32:46.184Z,6.47
2023-02-27T01:35:31.671Z,4.72
2023-02-27T01:38:17.190Z,6.00
2023-02-27T01:41:03.021Z,4.60
2023-02-27T01:44:00.350Z,7.38
2023-02-27T01:46:45.690Z,4.32
2023-02-27T01:49:34.604Z,5.05
2023-02-27T01:52:19.799Z,6.20
2023-02-27T01:55:08.518Z,4.88
2023-02-27T01:57:54.605Z,3.50
2023-02-27T02:00:40.794Z,5.40
2023-02-27T02:03:52.080Z,3.88
2023-02-27T02:06:40.974Z,5.18
2023-02-27T02:09:28.462Z,4.10
2023-02-27T02:12:16.487Z,7.00
2023-02-27T02:15:01.708Z,6.78
2023-02-27T02:18:11.270Z,4.00
2023-02-27T02:21:28.806Z,3.42
2023-02-27T02:24:29.286Z,6.13
2023-02-27T02:27:19.093Z,3.38
2023-02-27T02:30:26.186Z,8.80
2023-02-27T02:33:20.703Z,3.97
2023-02-27T02:36:14.891Z,3.83
2023-02-27T02:39:01.251Z,3.80
2023-02-27T02:41:52.986Z,7.38
2023-02-27T02:45:06.642Z,5.38
2023-02-27T02:48:11.785Z,2.58
2023-02-27T02:51:06.685Z,2.78
2023-02-27T02:53:55.800Z,3.85
2023-02-27T02:56:54.001Z,2.50
2023-02-27T02:59:47.483Z,3.85
2023-02-27T03:02:40.984Z,4.18
2023-02-27T03:05:32.788Z,2.20
2023-02-27T03:08:22.884Z,4.22
2023-02-27T03:11:08.491Z,5.32
2023-02-27T03:14:00.048Z,3.38
2023-02-27T03:16:50.137Z,4.70
2023-02-27T03:19:44.970Z,3.88
2023-02-27T03:22:37.734Z,2.72
2023-02-27T03:25:27.132Z,3.17
2023-02-27T03:28:22.138Z,7.82
2023-02-27T03:31:27.775Z,3.17
2023-02-27T03:34:24.599Z,2.50
2023-02-27T03:37:23.713Z,4.47
2023-02-27T03:40:23.788Z,3.63
2023-02-27T03:43:19.133Z,2.15
2023-02-27T03:46:11.778Z,4.07
2023-02-27T03:48:57.042Z,3.63
2023-02-27T03:51:42.802Z,2.92
2023-02-27T03:54:35.690Z,5.13
2023-02-27T03:57:20.992Z,3.03
2023-02-27T04:00:09.083Z,2.65
2023-02-27T04:02:58.842Z,3.33
2023-02-27T04:05:44.649Z,5.32
2023-02-27T04:08:50.461Z,2.70
2023-02-27T04:11:46.399Z,3.65
2023-02-27T04:15:03.909Z,5.13
2023-02-27T04:18:26.979Z,2.92
2023-02-27T04:21:36.934Z,7.70
2023-02-27T04:24:45.641Z,3.53
2023-02-27T04:27:45.004Z,7.07
2023-02-27T04:30:47.137Z,4.13
2023-02-27T04:33:54.787Z,4.32
2023-02-27T04:36:46.493Z,5.13
2023-02-27T04:39:38.525Z,2.55
2023-02-27T04:42:27.118Z,5.80
2023-02-27T04:45:17.853Z,2.88
2023-02-27T04:48:09.667Z,2.53
2023-02-27T04:51:04.563Z,3.15
2023-02-27T04:53:58.790Z,2.97
2023-02-27T04:56:55.799Z,2.33
2023-02-27T04:59:46.264Z,3.80
2023-02-27T05:02:35.859Z,3.67
2023-02-27T05:05:33.126Z,2.15
2023-02-27T05:08:29.564Z,2.22
2023-02-27T05:11:52.014Z,2.65
2023-02-27T05:14:44.034Z,3.83
2023-02-27T05:17:36.594Z,2.35
2023-02-27T05:20:28.338Z,3.05
2023-02-27T05:23:29.321Z,2.13
2023-02-27T05:26:26.425Z,2.88
2023-02-27T05:29:47.004Z,6.40
2023-02-27T05:32:53.198Z,3.65
2023-02-27T05:35:47.061Z,2.80
2023-02-27T05:38:42.260Z,4.68
2023-02-27T05:41:57.254Z,4.65
2023-02-27T05:44:51.688Z,3.75
2023-02-27T05:47:43.875Z,3.65
2023-02-27T05:50:31.942Z,5.53
2023-02-27T05:53:20.102Z,5.43
2023-02-27T05:56:08.100Z,7.35
2023-02-27T05:59:19.016Z,4.95
2023-02-27T06:02:04.742Z,4.38
2023-02-27T06:04:50.037Z,7.28
2023-02-27T06:07:36.536Z,3.92
2023-02-27T06:10:22.697Z,4.95
2023-02-27T06:13:07.789Z,5.03
2023-02-27T06:15:53.554Z,5.78
2023-02-27T06:18:38.638Z,4.13
2023-02-27T06:21:23.944Z,7.15
2023-02-27T06:24:09.296Z,5.97
2023-02-27T06:26:54.765Z,5.50
2023-02-27T06:29:40.012Z,6.57
2023-02-27T06:32:25.996Z,8.90
2023-02-27T06:35:11.478Z,7.57
2023-02-27T06:37:57.361Z,6.00
2023-02-27T06:40:42.696Z,6.95
2023-02-27T06:43:28.132Z,5.13
2023-02-27T06:46:13.677Z,5.57
2023-02-27T06:48:58.830Z,3.83
2023-02-27T06:51:45.157Z,4.43
2023-02-27T06:54:30.841Z,6.22
2023-02-27T06:57:16.100Z,5.30
2023-02-27T07:00:01.853Z,3.33
2023-02-27T07:02:46.876Z,4.93
2023-02-27T07:05:32.354Z,5.78
2023-02-27T07:08:17.908Z,4.43
2023-02-27T07:11:03.097Z,6.68
2023-02-27T07:13:48.645Z,5.45
2023-02-27T07:16:33.971Z,6.25
2023-02-27T07:19:19.788Z,3.72
2023-02-27T07:22:05.265Z,2.95
2023-02-27T07:24:50.237Z,4.43
2023-02-27T07:27:35.670Z,2.92
2023-02-27T07:30:21.062Z,3.22
2023-02-27T07:33:06.693Z,6.47
2023-02-27T07:35:52.167Z,3.15
2023-02-27T07:38:37.422Z,2.90
2023-02-27T07:41:30.228Z,3.33
2023-02-27T07:44:15.708Z,2.95
2023-02-27T07:47:00.996Z,3.55
2023-02-27T07:49:46.278Z,3.70
2023-02-27T07:52:32.667Z,3.85
2023-02-27T07:55:17.998Z,2.92
2023-02-27T07:58:03.448Z,3.40
2023-02-27T08:00:49.055Z,3.92
2023-02-27T08:03:34.206Z,7.15
2023-02-27T08:06:19.548Z,2.40
2023-02-27T08:09:05.890Z,4.20
2023-02-27T08:11:51.188Z,1.48
2023-02-27T08:14:36.642Z,3.10
2023-02-27T08:17:21.930Z,1.95
2023-02-27T08:20:07.987Z,2.38
2023-02-27T08:22:54.115Z,2.65
2023-02-27T08:25:39.527Z,2.13
2023-02-27T08:28:25.629Z,3.85
2023-02-27T08:31:10.920Z,4.28
2023-02-27T08:34:04.430Z,3.88
2023-02-27T08:36:54.775Z,2.83
2023-02-27T08:39:40.120Z,3.13
2023-02-27T08:42:26.898Z,2.05
2023-02-27T08:45:12.537Z,2.05
2023-02-27T08:47:58.036Z,1.48
2023-02-27T08:50:43.983Z,2.88
2023-02-27T08:53:29.825Z,5.28
2023-02-27T08:56:15.206Z,1.77
2023-02-27T08:59:00.973Z,1.67
2023-02-27T09:01:46.133Z,1.35
2023-02-27T09:04:31.607Z,1.75
2023-02-27T09:07:17.043Z,1.73
2023-02-27T09:10:02.396Z,6.57
2023-02-27T09:12:49.237Z,2.10
2023-02-27T09:15:37.862Z,1.45
2023-02-27T09:18:23.556Z,2.13
2023-02-27T09:21:08.746Z,1.73
2023-02-27T09:23:54.895Z,3.13
2023-02-27T09:26:45.931Z,4.40
2023-02-27T09:29:31.990Z,2.58
2023-02-27T09:32:17.487Z,1.83
2023-02-27T09:35:03.000Z,2.58
2023-02-27T09:37:49.558Z,1.70
2023-02-27T09:40:40.550Z,3.05
2023-02-27T09:43:31.001Z,2.40
2023-02-27T09:46:19.121Z,2.53
2023-02-27T09:49:05.026Z,1.50
2023-02-27T09:51:53.452Z,1.75
2023-02-27T09:54:38.642Z,1.65
2023-02-27T09:57:52.047Z,1.58
2023-02-27T10:00:51.479Z,1.88
2023-02-27T10:03:45.172Z,1.17
2023-02-27T10:06:54.553Z,2.50
2023-02-27T10:09:47.689Z,1.83
2023-02-27T10:12:51.922Z,1.50
2023-02-27T10:15:48.661Z,2.67
2023-02-27T10:18:43.711Z,3.03
2023-02-27T10:21:39.406Z,1.27
2023-02-27T10:24:33.704Z,3.00
2023-02-27T10:27:21.228Z,2.35
2023-02-27T10:30:29.274Z,2.60
2023-02-27T10:33:28.486Z,2.80
2023-02-27T10:36:32.197Z,5.95
2023-02-27T10:39:20.897Z,1.73
2023-02-27T10:42:09.632Z,1.70
2023-02-27T10:44:56.006Z,2.50
2023-02-27T10:47:41.544Z,2.05
2023-02-27T10:50:30.221Z,2.10
2023-02-27T10:53:23.022Z,4.63
2023-02-27T10:56:14.228Z,2.25
2023-02-27T10:59:07.873Z,1.63
2023-02-27T11:01:57.793Z,2.42
2023-02-27T11:04:53.890Z,2.22
2023-02-27T11:07:39.865Z,3.40
2023-02-27T11:10:27.559Z,2.10
2023-02-27T11:13:23.182Z,2.95
2023-02-27T11:16:15.870Z,2.03
2023-02-27T11:19:07.599Z,2.47
2023-02-27T11:22:17.273Z,1.27
2023-02-27T11:25:23.890Z,1.60
2023-02-27T11:28:30.305Z,1.48
2023-02-27T11:31:21.418Z,2.45
2023-02-27T11:34:08.284Z,4.25
2023-02-27T11:36:57.859Z,6.47
2023-02-27T11:39:52.694Z,2.60
2023-02-27T11:42:52.122Z,3.30
2023-02-27T11:46:12.168Z,1.48
2023-02-27T11:48:54.996Z,2.38
2023-02-27T11:51:40.226Z,1.63
2023-02-27T11:54:34.670Z,1.88
2023-02-27T11:57:33.691Z,2.05
2023-02-27T12:00:45.435Z,6.10
2023-02-27T12:03:52.270Z,2.75
2023-02-27T12:06:51.936Z,2.60
2023-02-27T12:09:51.494Z,4.32
2023-02-27T12:12:45.349Z,3.10
2023-02-27T12:15:53.201Z,2.90
2023-02-27T12:18:45.008Z,4.07
2023-02-27T12:21:53.773Z,3.17
2023-02-27T12:25:02.574Z,3.88
2023-02-27T12:28:06.489Z,3.42
2023-02-27T12:31:02.514Z,3.13
2023-02-27T12:34:06.497Z,5.85
2023-02-27T12:36:53.388Z,4.72
2023-02-27T12:39:40.575Z,4.90
2023-02-27T12:42:52.842Z,4.15
2023-02-27T12:45:48.239Z,6.15
2023-02-27T12:48:40.010Z,3.78
2023-02-27T12:51:44.306Z,3.65
2023-02-27T12:54:57.891Z,4.00
2023-02-27T12:58:11.337Z,4.07
2023-02-27T13:01:00.792Z,4.30
2023-02-27T13:03:56.387Z,3.75
2023-02-27T13:06:53.463Z,4.50
2023-02-27T13:09:55.438Z,3.00
2023-02-27T13:12:48.058Z,2.60
2023-02-27T13:15:36.911Z,4.72
2023-02-27T13:18:40.793Z,6.22
2023-02-27T13:21:32.046Z,6.07
2023-02-27T13:24:26.177Z,3.35
2023-02-27T13:27:26.448Z,5.35
2023-02-27T13:30:27.757Z,3.60
2023-02-27T13:33:20.977Z,3.03
2023-02-27T13:36:28.067Z,5.20
2023-02-27T13:39:38.881Z,3.97
2023-02-27T13:42:27.521Z,5.90
2023-02-27T13:45:48.673Z,5.88
2023-02-27T13:48:34.326Z,4.57
2023-02-27T13:51:35.057Z,5.90
2023-02-27T13:54:31.763Z,3.17
2023-02-27T13:57:25.966Z,6.53
2023-02-27T14:00:26.691Z,3.28
2023-02-27T14:03:25.745Z,3.42
2023-02-27T14:06:11.880Z,4.93
2023-02-27T14:09:14.900Z,4.72
2023-02-27T14:12:03.853Z,4.53
2023-02-27T14:14:50.476Z,3.33
2023-02-27T14:17:38.990Z,3.70
2023-02-27T14:20:27.140Z,4.15
2023-02-27T14:23:20.660Z,4.47
2023-02-27T14:26:19.427Z,4.60
2023-02-27T14:29:05.179Z,2.92
2023-02-27T14:31:53.003Z,5.13
2023-02-27T14:34:40.889Z,3.38
2023-02-27T14:37:27.170Z,2.60
2023-02-27T14:40:30.402Z,3.85
2023-02-27T14:43:34.646Z,3.67
2023-02-27T14:46:26.917Z,3.95
2023-02-27T14:49:35.956Z,4.15
2023-02-27T14:52:29.655Z,4.82
2023-02-27T14:55:27.990Z,4.45
2023-02-27T14:58:21.803Z,4.90
2023-02-27T15:01:09.778Z,5.97
2023-02-27T15:03:58.335Z,3.45
2023-02-27T15:06:47.691Z,6.18
2023-02-27T15:09:42.788Z,4.70
2023-02-27T15:12:28.802Z,5.60
2023-02-27T15:15:19.752Z,5.75
2023-02-27T15:18:13.654Z,5.72
2023-02-27T15:20:59.453Z,5.15
2023-02-27T15:23:44.983Z,9.18
2023-02-27T15:26:34.977Z,7.03
2023-02-27T15:29:27.961Z,5.30
2023-02-27T15:32:22.712Z,6.32
2023-02-27T15:35:24.464Z,6.05
2023-02-27T15:38:34.096Z,5.82
2023-02-27T15:41:19.676Z,6.88
2023-02-27T15:44:05.334Z,5.32
2023-02-27T15:46:51.551Z,5.40
2023-02-27T15:49:38.155Z,3.88
2023-02-27T15:52:25.973Z,7.10
2023-02-27T15:55:16.866Z,5.65
2023-02-27T15:58:03.704Z,6.75
2023-02-27T16:01:00.642Z,6.50
2023-02-27T16:03:48.710Z,5.70
2023-02-27T16:06:41.414Z,5.65
2023-02-27T16:09:34.985Z,5.20
2023-02-27T16:12:29.612Z,6.28
2023-02-27T16:15:31.404Z,6.72
2023-02-27T16:18:16.516Z,5.72
2023-02-27T16:21:11.660Z,6.57
2023-02-27T16:24:29.465Z,11.32
2023-02-27T16:27:26.572Z,6.07
2023-02-27T16:30:12.647Z,8.32
2023-02-27T16:33:01.860Z,8.32
2023-02-27T16:35:47.690Z,6.47
2023-02-27T16:38:33.274Z,7.95
2023-02-27T16:41:20.581Z,9.07
2023-02-27T16:44:06.004Z,8.88
2023-02-27T16:46:55.859Z,7.60
2023-02-27T16:49:40.905Z,7.90
2023-02-27T16:52:26.311Z,9.35
2023-02-27T16:55:11.690Z,11.15
2023-02-27T16:57:57.226Z,7.38
2023-02-27T17:00:43.257Z,8.05
2023-02-27T17:03:28.127Z,7.28
2023-02-27T17:06:14.810Z,8.75
2023-02-27T17:08:59.777Z,6.05
2023-02-27T17:11:45.134Z,6.47
2023-02-27T17:14:30.399Z,5.93
2023-02-27T17:17:15.639Z,7.72
2023-02-27T17:20:01.841Z,6.63
2023-02-27T17:22:46.906Z,8.18
2023-02-27T17:25:32.366Z,6.80
2023-02-27T17:28:17.635Z,4.28
2023-02-27T17:31:15.243Z,5.82
2023-02-27T17:34:00.386Z,6.15
2023-02-27T17:36:45.985Z,7.85
2023-02-27T17:39:31.130Z,9.95
2023-02-27T17:42:18.486Z,5.75
2023-02-27T17:45:06.310Z,10.73
2023-02-27T17:47:51.864Z,7.28
2023-02-27T17:50:37.301Z,7.80
2023-02-27T17:53:22.810Z,13.75
2023-02-27T17:56:08.640Z,10.13
2023-02-27T17:58:53.743Z,10.30
2023-02-27T18:01:39.156Z,6.80
2023-02-27T18:04:25.201Z,6.30
2023-02-27T18:07:10.598Z,5.68
2023-02-27T18:09:55.974Z,5.05
2023-02-27T18:12:42.031Z,5.47
2023-02-27T18:15:27.584Z,12.73
2023-02-27T18:18:13.795Z,6.85
2023-02-27T18:21:09.147Z,9.73
2023-02-27T18:23:54.900Z,11.27
2023-02-27T18:26:40.140Z,15.02
2023-02-27T18:29:25.578Z,13.98
2023-02-27T18:32:11.031Z,11.90
2023-02-27T18:34:56.220Z,8.95
2023-02-27T18:37:41.621Z,9.30
2023-02-27T18:40:27.081Z,6.95
2023-02-27T18:43:13.900Z,7.32
2023-02-27T18:46:00.494Z,7.00
2023-02-27T18:48:46.183Z,8.13
2023-02-27T18:51:31.628Z,7.60
2023-02-27T18:54:16.769Z,9.43
2023-02-27T18:57:02.193Z,6.03
2023-02-27T18:59:47.763Z,6.90
2023-02-27T19:02:33.149Z,6.53
2023-02-27T19:05:19.003Z,5.53
2023-02-27T19:08:04.416Z,8.88
2023-02-27T19:10:49.646Z,6.03
2023-02-27T19:13:34.996Z,5.70
2023-02-27T19:16:20.363Z,6.10
2023-02-27T19:19:07.552Z,9.32
2023-02-27T19:21:52.684Z,5.30
2023-02-27T19:24:38.008Z,5.18
2023-02-27T19:27:23.417Z,6.13
2023-02-27T19:30:09.559Z,5.70
2023-02-27T19:32:55.029Z,6.90
2023-02-27T19:35:43.236Z,6.00
2023-02-27T19:38:28.676Z,10.95
2023-02-27T19:41:16.620Z,7.35
2023-02-27T19:44:02.130Z,6.78
2023-02-27T19:46:51.288Z,6.10
2023-02-27T19:49:37.594Z,8.35
2023-02-27T19:52:22.830Z,6.68
2023-02-27T19:55:08.722Z,5.43
2023-02-27T19:57:53.894Z,6.72
2023-02-27T20:00:40.343Z,5.22
2023-02-27T20:03:26.472Z,5.95
2023-02-27T20:06:17.494Z,6.00
2023-02-27T20:09:02.650Z,5.30
2023-02-27T20:11:51.671Z,8.10
2023-02-27T20:14:37.621Z,7.25
2023-02-27T20:17:22.729Z,6.05
2023-02-27T20:20:09.462Z,5.63
2023-02-27T20:22:54.494Z,6.18
2023-02-27T20:25:39.749Z,6.13
2023-02-27T20:28:24.990Z,3.42
2023-02-27T20:31:12.577Z,3.60
2023-02-27T20:34:00.805Z,3.85
2023-02-27T20:36:45.888Z,3.97
2023-02-27T20:39:31.338Z,4.07
2023-02-27T20:42:16.883Z,3.88
2023-02-27T20:45:02.099Z,4.10
2023-02-27T20:47:47.489Z,3.95
2023-02-27T20:50:34.046Z,3.70
2023-02-27T20:53:19.225Z,5.25
2023-02-27T20:56:06.058Z,4.38
2023-02-27T20:58:51.037Z,5.18
2023-02-27T21:01:38.481Z,3.72
2023-02-27T21:04:47.099Z,4.38
2023-02-27T21:07:32.674Z,6.50
2023-02-27T21:10:18.441Z,5.13
2023-02-27T21:13:03.955Z,4.90
2023-02-27T21:15:49.240Z,4.50
2023-02-27T21:18:34.950Z,6.35
2023-02-27T21:21:23.416Z,4.22
2023-02-27T21:24:08.612Z,5.88
2023-02-27T21:26:54.116Z,5.65
2023-02-27T21:29:39.966Z,4.80
2023-02-27T21:32:25.405Z,4.57
2023-02-27T21:35:11.620Z,4.88
2023-02-27T21:37:56.621Z,5.63
2023-02-27T21:40:42.311Z,4.03
2023-02-27T21:43:27.330Z,6.30
2023-02-27T21:46:13.047Z,9.07
2023-02-27T21:48:58.689Z,9.98
2023-02-27T21:51:44.371Z,7.60
2023-02-27T21:54:30.094Z,4.10
2023-02-27T21:57:15.379Z,7.28
2023-02-27T22:00:00.936Z,6.05
2023-02-27T22:02:46.425Z,5.35
2023-02-27T22:05:31.809Z,6.00
2023-02-27T22:08:17.415Z,6.03
2023-02-27T22:11:02.770Z,7.78
2023-02-27T22:13:48.438Z,5.07
2023-02-27T22:16:34.491Z,5.20
2023-02-27T22:19:19.919Z,5.18
2023-02-27T22:22:05.766Z,5.88
2023-02-27T22:24:51.001Z,5.18
2023-02-27T22:27:36.473Z,7.50
2023-02-27T22:30:21.935Z,5.97
2023-02-27T22:33:07.691Z,5.80
2023-02-27T22:35:53.143Z,5.28
2023-02-27T22:38:38.535Z,6.43
2023-02-27T22:41:28.628Z,5.50
2023-02-27T22:44:15.795Z,4.10
2023-02-27T22:47:00.829Z,3.80
2023-02-27T22:49:46.413Z,6.88
2023-02-27T22:52:31.977Z,4.53
2023-02-27T22:55:17.459Z,4.13
2023-02-27T22:58:02.960Z,6.72
2023-02-27T23:00:48.188Z,6.20
2023-02-27T23:03:33.583Z,4.60
2023-02-27T23:06:25.644Z,5.53
2023-02-27T23:09:15.085Z,5.35
2023-02-27T23:12:02.117Z,4.55
2023-02-27T23:14:47.575Z,5.53
2023-02-27T23:17:33.042Z,5.13
2023-02-27T23:20:18.500Z,4.65
2023-02-27T23:23:05.452Z,5.05
2023-02-27T23:25:50.959Z,6.47
2023-02-27T23:28:37.377Z,5.88
2023-02-27T23:31:23.256Z,6.00
2023-02-27T23:34:09.182Z,4.22
2023-02-27T23:36:54.381Z,8.15
2023-02-27T23:39:39.803Z,4.88
2023-02-27T23:42:43.689Z,6.65
2023-02-27T23:45:29.160Z,6.40
2023-02-27T23:48:14.414Z,6.78
2023-02-27T23:51:02.762Z,5.53
2023-02-27T23:53:47.896Z,6.05
2023-02-27T23:56:33.175Z,5.55
2023-02-27T23:59:18.608Z,6.10
